Details for FedEx at KGSO




Go Back


Latest METAR
Local Time

KGSO 252154Z 20008KT 10SM SCT039TCU SCT060 BKN250 26/19 A3000 RMK AO2 SLP148 CB DSNT SE TCU OHD AND DSNT SW-NW T02610194

25/05/2018, 18:28:41

Description
Results
FedEx Logo
Number of Pilots based at KGSO
0 Pilots Based here
Number of FedEx Flights Departed from KGSO
0 Flights Departed
Number of FedEx Flights Arrived at KGSO
0 Flights Arrived
Number of FedEx Schedules Departing from KGSO
13 Schedules
Number of FedEx Schedules Arriving at KGSO
12 Schedules
Number of FedEx Schedules Departing from KGSO availible today
5 Schedules Today
Number of FedEx Schedules Arriving at KGSO availible today
6 Schedules Today
Average Landing Rate at KGSO
0 fpm
FedEx Average Landing Rate at KGSO
0 fpm
Total Fuel Purchased at KGSO by FedEx
0.00 kgs / 0.00 lbs

Pilots Based at KGSO


Pilot ID
Pilot Name
Pilot Rank
No. of Flights
No. of Flying Hours
There are no pilots assigned to this hub!   Will you be the first?
Content